Time;durP1;ratioP1;P1;durP2;ratioP2;P2;SDS_P1;SDS_P2;PMS_P1;PMS_P2;Temp;Humidity;BMP_temperature;BMP_pressure;BME280_temperature;BME280_humidity;BME280_pressure;Samples;Min_cycle;Max_cycle;Signal;HPM_P1;HPM_P2
2023/10/28 00:00:59;;;;;;;;;0.00;0.00;;;;;11.68;100.00;99334.47;6336426;22;46257;-85
2023/10/28 00:03:27;;;;;;;;;0.00;0.00;;;;;11.72;100.00;99333.34;6336511;22;45221;-84
2023/10/28 00:05:53;;;;;;;;;0.25;0.00;;;;;11.75;100.00;99330.56;6336797;22;45310;-84
2023/10/28 00:08:18;;;;;;;;;0.00;0.00;;;;;11.75;100.00;99329.72;6336571;22;45233;-85
2023/10/28 00:10:46;;;;;;;;;0.00;0.00;;;;;11.79;100.00;99329.47;6336391;22;46471;-85
2023/10/28 00:13:16;;;;;;;;;0.00;0.00;;;;;11.77;100.00;99315.66;6336932;22;45190;-85
2023/10/28 00:15:42;;;;;;;;;0.00;0.00;;;;;11.83;100.00;99319.72;6336845;22;45227;-85
2023/10/28 00:18:08;;;;;;;;;0.00;0.00;;;;;11.74;100.00;99317.63;6308569;22;45307;-85
2023/10/28 00:20:38;;;;;;;;;0.00;0.00;;;;;11.78;100.00;99324.34;6336082;22;47158;-86
2023/10/28 00:23:08;;;;;;;;;0.00;0.00;;;;;11.78;100.00;99317.34;6308725;22;45308;-85
2023/10/28 00:25:41;;;;;;;;;0.00;0.00;;;;;11.84;100.00;99307.53;6336686;22;45267;-85
2023/10/28 00:28:07;;;;;;;;;0.00;0.00;;;;;11.81;100.00;99317.19;6310465;22;45276;-85
2023/10/28 00:30:45;;;;;;;;;0.00;0.00;;;;;11.79;100.00;99310.38;6309110;22;45269;-84
2023/10/28 00:33:12;;;;;;;;;1.00;0.00;;;;;11.78;100.00;99314.75;6283066;22;45299;-85
2023/10/28 00:35:40;;;;;;;;;0.00;0.00;;;;;11.78;100.00;99299.13;6308902;22;45251;-85
2023/10/28 00:38:16;;;;;;;;;0.00;0.00;;;;;11.73;100.00;99310.72;6309124;22;45321;-84
2023/10/28 00:40:42;;;;;;;;;0.00;0.00;;;;;11.70;100.00;99305.69;6308714;22;46590;-85
2023/10/28 00:43:10;;;;;;;;;0.00;0.00;;;;;11.63;100.00;99319.06;6308487;22;45725;-85
2023/10/28 00:45:36;;;;;;;;;0.00;0.00;;;;;11.60;100.00;99316.63;6336608;22;45226;-85
2023/10/28 00:48:05;;;;;;;;;0.00;0.00;;;;;11.59;100.00;99306.31;6336529;22;45510;-85
2023/10/28 00:50:31;;;;;;;;;0.00;0.00;;;;;11.56;100.00;99291.66;6308664;22;46182;-85
2023/10/28 00:53:02;;;;;;;;;0.00;0.00;;;;;11.58;100.00;99287.19;6308619;22;45329;-84
2023/10/28 00:55:30;;;;;;;;;0.00;0.00;;;;;11.58;100.00;99317.63;6337076;22;45373;-84
2023/10/28 00:57:56;;;;;;;;;0.00;0.00;;;;;11.60;100.00;99294.94;6336188;22;45476;-84
2023/10/28 01:00:21;;;;;;;;;0.00;0.00;;;;;11.66;100.00;99291.13;6308967;22;46161;-84
2023/10/28 01:02:47;;;;;;;;;0.00;0.00;;;;;11.67;100.00;99292.84;6335907;22;45377;-84
2023/10/28 01:05:15;;;;;;;;;0.00;0.00;;;;;11.67;100.00;99303.25;6309140;22;45325;-85
2023/10/28 01:07:43;;;;;;;;;0.00;0.00;;;;;11.62;100.00;99291.31;6337170;22;45175;-85
2023/10/28 01:10:16;;;;;;;;;0.00;0.00;;;;;11.66;100.00;99288.53;6336778;22;46143;-85
2023/10/28 01:13:04;;;;;;;;;0.25;0.00;;;;;11.65;100.00;99279.88;6336867;22;45341;-85
2023/10/28 01:15:32;;;;;;;;;0.00;0.00;;;;;11.69;100.00;99285.75;6336488;22;45304;-85
2023/10/28 01:17:57;;;;;;;;;0.00;0.00;;;;;11.71;100.00;99287.34;6281971;22;45333;-85
2023/10/28 01:20:26;;;;;;;;;0.00;0.00;;;;;11.74;100.00;99281.97;6282445;22;48375;-85
2023/10/28 01:22:51;;;;;;;;;0.00;0.00;;;;;11.77;100.00;99280.94;6336169;22;45162;-85
2023/10/28 01:25:19;;;;;;;;;0.00;0.00;;;;;11.67;100.00;99275.41;6282583;22;45525;-85
2023/10/28 01:27:47;;;;;;;;;0.00;0.00;;;;;11.72;100.00;99270.78;6309366;22;45369;-85
2023/10/28 01:30:14;;;;;;;;;1.00;0.00;;;;;11.71;100.00;99271.72;6308658;22;46925;-85
2023/10/28 01:32:47;;;;;;;;;1.00;1.00;;;;;11.69;100.00;99272.72;6308493;22;45336;-85
2023/10/28 01:35:15;;;;;;;;;0.00;0.00;;;;;11.71;100.00;99273.47;6282277;22;45271;-85
2023/10/28 01:37:51;;;;;;;;;;;;;;;;;;;;;
2023/10/28 01:40:19;;;;;;;;;0.00;0.00;;;;;11.75;100.00;99265.38;6331751;22;76305;-85
2023/10/28 01:42:47;;;;;;;;;0.00;0.00;;;;;11.69;100.00;99277.94;6308822;22;45186;-85
2023/10/28 01:45:24;;;;;;;;;;;;;;;;;;;;;
2023/10/28 01:47:49;;;;;;;;;0.00;0.00;;;;;11.74;100.00;99261.13;6329958;22;71574;-86
2023/10/28 01:50:22;;;;;;;;;0.00;0.00;;;;;11.74;100.00;99268.09;6308167;22;47938;-86
2023/10/28 01:52:50;;;;;;;;;0.00;0.00;;;;;11.73;100.00;99267.25;6336170;22;45290;-85
2023/10/28 01:55:18;;;;;;;;;0.00;0.00;;;;;11.69;100.00;99278.78;6308388;22;45237;-86
2023/10/28 01:57:44;;;;;;;;;0.00;0.00;;;;;11.71;100.00;99268.28;6309151;22;45390;-85
2023/10/28 02:00:12;;;;;;;;;0.00;0.00;;;;;11.62;100.00;99267.84;6335931;22;45587;-85
2023/10/28 02:02:38;;;;;;;;;0.00;0.00;;;;;11.64;100.00;99267.75;6335744;22;45549;-85
2023/10/28 02:05:04;;;;;;;;;0.00;0.00;;;;;11.65;100.00;99274.66;6308555;22;45293;-85
2023/10/28 02:07:32;;;;;;;;;0.00;0.00;;;;;11.66;100.00;99263.31;6336472;22;45469;-85
2023/10/28 02:10:00;;;;;;;;;0.00;0.00;;;;;11.63;100.00;99261.72;6308204;22;47077;-85
2023/10/28 02:12:31;;;;;;;;;0.00;0.00;;;;;11.66;100.00;99262.47;6308718;22;45300;-85
2023/10/28 02:14:59;;;;;;;;;0.00;0.00;;;;;11.62;100.00;99248.78;6336178;22;45246;-85
2023/10/28 02:17:32;;;;;;;;;0.00;0.00;;;;;11.61;100.00;99258.38;6308381;22;45231;-85
2023/10/28 02:20:03;;;;;;;;;0.00;0.00;;;;;11.62;100.00;99246.16;6282131;22;47267;-85
2023/10/28 02:22:31;;;;;;;;;0.00;0.00;;;;;11.64;100.00;99257.34;6308988;22;45464;-83
2023/10/28 02:24:59;;;;;;;;;0.00;0.00;;;;;11.64;100.00;99252.13;6308756;22;45385;-85
2023/10/28 02:27:27;;;;;;;;;0.00;0.00;;;;;11.68;100.00;99247.59;6308157;22;45267;-86
2023/10/28 02:29:55;;;;;;;;;0.00;0.00;;;;;11.74;100.00;99253.28;6281505;22;47984;-84
2023/10/28 02:32:24;;;;;;;;;0.00;0.00;;;;;11.74;100.00;99232.44;6335863;22;45283;-85
2023/10/28 02:34:53;;;;;;;;;0.00;0.00;;;;;11.77;100.00;99229.63;6308539;22;45319;-85
2023/10/28 02:37:19;;;;;;;;;0.00;0.00;;;;;11.73;100.00;99224.72;6335990;22;45364;-85
2023/10/28 02:39:54;;;;;;;;;;;;;;;;;;;;;
2023/10/28 02:42:23;;;;;;;;;0.00;0.00;;;;;11.79;100.00;99243.44;6329720;22;73995;-85
2023/10/28 02:44:54;;;;;;;;;0.00;0.00;;;;;11.78;100.00;99217.47;6281603;22;45420;-85
2023/10/28 02:47:22;;;;;;;;;0.00;0.00;;;;;11.84;100.00;99226.69;6335968;22;45253;-84
2023/10/28 02:49:48;;;;;;;;;0.00;0.00;;;;;11.82;100.00;99224.16;6308549;22;45399;-85
2023/10/28 02:52:15;;;;;;;;;0.00;0.00;;;;;11.82;100.00;99225.00;6307642;22;50667;-85
2023/10/28 02:54:43;;;;;;;;;0.00;0.00;;;;;11.81;100.00;99217.25;6308654;22;45292;-85
2023/10/28 02:57:11;;;;;;;;;0.00;0.00;;;;;11.78;100.00;99220.91;6336005;22;45367;-85
2023/10/28 02:59:36;;;;;;;;;0.00;0.00;;;;;11.74;100.00;99218.56;6335135;22;46644;-85
2023/10/28 03:02:04;;;;;;;;;0.00;0.00;;;;;11.72;100.00;99216.06;6308488;22;45336;-85
2023/10/28 03:04:34;;;;;;;;;0.00;0.00;;;;;11.68;100.00;99231.94;6308453;22;45254;-86
2023/10/28 03:07:03;;;;;;;;;0.00;0.00;;;;;11.67;100.00;99227.69;6335829;22;45261;-85
2023/10/28 03:09:30;;;;;;;;;0.00;0.00;;;;;11.64;100.00;99236.50;6335400;22;47026;-85
2023/10/28 03:11:56;;;;;;;;;0.00;0.00;;;;;11.57;100.00;99237.75;6308310;22;45316;-85
2023/10/28 03:14:28;;;;;;;;;0.00;0.00;;;;;11.57;100.00;99241.22;6307962;22;45322;-85
2023/10/28 03:16:56;;;;;;;;;0.00;0.00;;;;;11.53;100.00;99247.53;6309436;22;45560;-84
2023/10/28 03:19:39;;;;;;;;;0.00;0.00;;;;;11.55;100.00;99245.69;6335710;22;46161;-85
2023/10/28 03:22:06;;;;;;;;;0.00;0.00;;;;;11.52;100.00;99247.63;6308978;22;45233;-85
2023/10/28 03:24:34;;;;;;;;;0.00;0.00;;;;;11.51;100.00;99257.19;6309737;22;45402;-85
2023/10/28 03:27:14;;;;;;;;;;;;;;;;;;;;;
2023/10/28 03:29:44;;;;;;;;;0.00;0.00;;;;;11.41;100.00;99259.47;6310079;22;75383;-84
2023/10/28 03:32:12;;;;;;;;;0.00;0.00;;;;;11.43;100.00;99278.47;6309448;22;45332;-85
2023/10/28 03:34:38;;;;;;;;;0.00;0.00;;;;;11.46;100.00;99261.84;6309069;22;45320;-85
2023/10/28 03:39:58;;;;;;;;;0.00;0.00;;;;;11.43;100.00;99256.78;6336741;22;46454;-85
2023/10/28 03:42:26;;;;;;;;;0.00;0.00;;;;;11.37;100.00;99264.97;6310522;22;45499;-85
2023/10/28 03:45:00;;;;;;;;;0.00;0.00;;;;;11.42;100.00;99255.09;6336710;22;45292;-85
2023/10/28 03:47:33;;;;;;;;;0.00;0.00;;;;;11.42;100.00;99255.97;6311669;22;45425;-85
2023/10/28 03:49:58;;;;;;;;;0.00;0.00;;;;;11.51;100.00;99259.81;6308757;22;46808;-85
2023/10/28 03:52:29;;;;;;;;;0.00;0.00;;;;;11.54;100.00;99259.63;6309253;22;45309;-85
2023/10/28 03:54:57;;;;;;;;;0.00;0.00;;;;;11.56;100.00;99259.56;6336908;22;45276;-85
2023/10/28 03:57:25;;;;;;;;;0.00;0.00;;;;;11.67;100.00;99267.59;6336426;22;45155;-84
2023/10/28 03:59:53;;;;;;;;;0.00;0.00;;;;;11.59;100.00;99270.66;6308707;22;46413;-85
2023/10/28 04:02:21;;;;;;;;;0.00;0.00;;;;;11.64;100.00;99283.41;6283175;22;45373;-85
2023/10/28 04:04:46;;;;;;;;;0.00;0.00;;;;;11.63;100.00;99273.91;6308699;22;45223;-85
2023/10/28 04:07:12;;;;;;;;;0.00;0.00;;;;;11.59;100.00;99268.03;6337155;22;45277;-85
2023/10/28 04:09:52;;;;;;;;;0.00;0.00;;;;;11.59;100.00;99275.88;6337242;22;45350;-86
2023/10/28 04:12:22;;;;;;;;;0.00;0.00;;;;;11.56;100.00;99275.19;6310721;22;45286;-85
2023/10/28 04:14:52;;;;;;;;;0.00;0.00;;;;;11.43;100.00;99295.88;6309579;22;45267;-85
2023/10/28 04:17:30;;;;;;;;;;;;;;;;;;;;;
2023/10/28 04:19:59;;;;;;;;;0.00;0.00;;;;;11.44;100.00;99292.38;6306465;22;76291;-85
2023/10/28 04:22:28;;;;;;;;;0.00;0.00;;;;;11.45;100.00;99303.63;6309452;22;45283;-84
2023/10/28 04:25:21;;;;;;;;;0.00;0.00;;;;;11.50;100.00;99301.59;6336715;22;45301;-85
2023/10/28 04:27:59;;;;;;;;;0.00;0.00;;;;;11.47;100.00;99301.75;6336294;22;45281;-85
2023/10/28 04:30:30;;;;;;;;;0.00;0.00;;;;;11.50;100.00;99292.00;6336370;22;46020;-85
2023/10/28 04:33:23;;;;;;;;;;;;;;;;;;;;;
2023/10/28 04:35:56;;;;;;;;;0.00;0.00;;;;;11.59;100.00;99286.28;6305581;22;70038;-85
2023/10/28 04:38:28;;;;;;;;;0.00;0.00;;;;;11.66;100.00;99297.19;6309558;22;45439;-85
2023/10/28 04:41:07;;;;;;;;;;;;;;;;;;;;;
2023/10/28 04:43:40;;;;;;;;;0.00;0.00;;;;;11.65;100.00;99297.28;6335474;22;71777;-85
2023/10/28 04:46:08;;;;;;;;;0.00;0.00;;;;;11.66;100.00;99306.78;6337402;22;45392;-85
2023/10/28 04:48:38;;;;;;;;;0.00;0.00;;;;;11.71;100.00;99315.19;6283486;22;45475;-86
2023/10/28 04:51:06;;;;;;;;;1.00;0.00;;;;;11.63;100.00;99294.78;6309302;22;46184;-85
2023/10/28 04:53:32;;;;;;;;;0.00;0.00;;;;;11.69;100.00;99298.81;6309717;22;45245;-85
2023/10/28 04:56:08;;;;;;;;;0.00;0.00;;;;;11.63;100.00;99292.16;6309017;22;45157;-85
2023/10/28 04:58:44;;;;;;;;;;;;;;;;;;;;;
2023/10/28 05:01:15;;;;;;;;;0.00;0.00;;;;;11.66;100.00;99291.97;6300138;22;76610;-85
2023/10/28 05:03:44;;;;;;;;;0.00;0.00;;;;;11.69;100.00;99302.25;6336474;22;45283;-85
2023/10/28 05:06:10;;;;;;;;;0.00;0.00;;;;;11.70;100.00;99305.69;6336643;22;45226;-85
2023/10/28 05:08:36;;;;;;;;;0.00;0.00;;;;;11.72;100.00;99309.03;6309577;22;45441;-85
2023/10/28 05:11:11;;;;;;;;;0.00;0.00;;;;;11.73;100.00;99311.56;6308761;22;45370;-85
2023/10/28 05:13:39;;;;;;;;;0.00;0.00;;;;;11.74;100.00;99305.44;6336443;22;45380;-85
2023/10/28 05:16:04;;;;;;;;;0.00;0.00;;;;;11.77;100.00;99304.41;6337138;22;45337;-85
2023/10/28 05:18:47;;;;;;;;;0.00;0.00;;;;;11.75;100.00;99299.28;6336554;22;45496;-85
2023/10/28 05:21:13;;;;;;;;;1.00;0.00;;;;;11.69;100.00;99307.44;6336318;22;45328;-85
2023/10/28 05:23:46;;;;;;;;;0.00;0.00;;;;;11.72;100.00;99296.00;6308396;22;45672;-85
2023/10/28 05:26:22;;;;;;;;;0.00;0.00;;;;;11.73;100.00;99295.91;6336611;22;45292;-85
2023/10/28 05:28:50;;;;;;;;;0.00;0.00;;;;;11.74;100.00;99295.00;6337021;22;45313;-85
2023/10/28 05:31:20;;;;;;;;;0.00;0.00;;;;;11.75;100.00;99296.66;6309684;22;46406;-85
2023/10/28 05:33:56;;;;;;;;;0.00;0.00;;;;;11.74;100.00;99299.38;6336274;22;45229;-85
2023/10/28 05:36:26;;;;;;;;;0.00;0.00;;;;;11.74;100.00;99296.78;6284229;22;45298;-85
2023/10/28 05:39:03;;;;;;;;;0.00;0.00;;;;;11.82;100.00;99318.84;6335850;22;45523;-85
2023/10/28 05:41:38;;;;;;;;;;;;;;;;;;;;;
2023/10/28 05:44:11;;;;;;;;;0.00;0.00;;;;;11.82;100.00;99308.44;6310147;22;71731;-85
2023/10/28 05:46:39;;;;;;;;;0.00;0.00;;;;;11.80;100.00;99304.25;6308734;22;45281;-85
2023/10/28 05:49:14;;;;;;;;;;;;;;;;;;;;;
2023/10/28 05:51:45;;;;;;;;;0.00;0.00;;;;;11.81;100.00;99314.59;6305076;22;76364;-85
2023/10/28 05:54:15;;;;;;;;;0.00;0.00;;;;;11.82;100.00;99312.81;6308689;22;45271;-85
2023/10/28 05:56:43;;;;;;;;;0.00;0.00;;;;;11.78;100.00;99316.53;6336901;22;45159;-85
2023/10/28 05:59:10;;;;;;;;;0.00;0.00;;;;;11.80;100.00;99323.31;6309698;22;45281;-85
2023/10/28 06:01:39;;;;;;;;;0.00;0.00;;;;;11.88;100.00;99324.66;6336370;22;47297;-85
2023/10/28 06:04:09;;;;;;;;;0.00;0.00;;;;;11.83;100.00;99319.72;6335946;22;45369;-85
2023/10/28 06:06:35;;;;;;;;;0.00;0.00;;;;;11.91;100.00;99329.75;6337171;22;45196;-85
2023/10/28 06:09:10;;;;;;;;;0.00;0.00;;;;;11.86;100.00;99316.91;6336112;22;45398;-85
2023/10/28 06:11:38;;;;;;;;;1.50;0.00;;;;;11.89;100.00;99321.13;6336323;22;47039;-85
2023/10/28 06:14:23;;;;;;;;;0.00;0.00;;;;;11.92;100.00;99324.44;6282264;22;45258;-85
2023/10/28 06:16:53;;;;;;;;;0.00;0.00;;;;;11.96;100.00;99312.03;6312585;22;45261;-84
2023/10/28 06:19:23;;;;;;;;;0.00;0.00;;;;;11.98;100.00;99313.66;6336210;22;45313;-85
2023/10/28 06:21:56;;;;;;;;;0.00;0.00;;;;;11.99;100.00;99328.34;6335594;22;46890;-85
2023/10/28 06:24:22;;;;;;;;;0.00;0.00;;;;;11.94;100.00;99321.72;6308609;22;45419;-85
2023/10/28 06:26:49;;;;;;;;;0.00;0.00;;;;;11.99;100.00;99338.78;6308955;22;45285;-85
2023/10/28 06:29:17;;;;;;;;;0.00;0.00;;;;;11.96;100.00;99328.56;6336185;22;45417;-85
2023/10/28 06:31:44;;;;;;;;;0.00;0.00;;;;;11.97;100.00;99339.81;6308378;22;46309;-85
2023/10/28 06:34:26;;;;;;;;;0.00;0.00;;;;;12.04;100.00;99348.97;6336362;22;45337;-85
2023/10/28 06:36:53;;;;;;;;;0.00;0.00;;;;;12.00;100.00;99342.25;6335547;22;45411;-85
2023/10/28 06:39:18;;;;;;;;;0.00;0.00;;;;;12.06;100.00;99339.28;6308409;22;45606;-85
2023/10/28 06:41:47;;;;;;;;;0.00;0.00;;;;;12.17;100.00;99354.31;6308648;22;45919;-85
2023/10/28 06:44:22;;;;;;;;;0.00;0.00;;;;;12.07;100.00;99340.13;6281911;22;45621;-86
2023/10/28 06:46:48;;;;;;;;;0.00;0.00;;;;;12.11;100.00;99345.09;6336481;22;45234;-84
2023/10/28 06:49:49;;;;;;;;;0.00;0.00;;;;;12.13;100.00;99353.66;6308215;22;45224;-86
2023/10/28 06:52:24;;;;;;;;;0.00;0.00;;;;;12.11;100.00;99346.84;6335418;22;46205;-85
2023/10/28 06:54:52;;;;;;;;;0.00;0.00;;;;;12.23;100.00;99358.34;6307639;22;45253;-86
2023/10/28 06:57:23;;;;;;;;;0.00;0.00;;;;;12.18;100.00;99358.59;6282577;22;45242;-85
2023/10/28 07:00:26;;;;;;;;;;;;;;;;;;;;;
2023/10/28 07:02:58;;;;;;;;;0.00;0.00;;;;;12.23;100.00;99366.19;6310859;22;75481;-85
2023/10/28 07:05:26;;;;;;;;;0.50;0.00;;;;;12.25;100.00;99374.75;6335531;22;45254;-84
2023/10/28 07:07:54;;;;;;;;;0.00;0.00;;;;;12.26;100.00;99364.22;6308834;22;45338;-85
2023/10/28 07:10:22;;;;;;;;;2.00;1.50;;;;;12.26;100.00;99366.84;6335863;22;45525;-85
2023/10/28 07:12:57;;;;;;;;;0.00;0.00;;;;;12.30;100.00;99363.13;6308566;22;46479;-85
2023/10/28 07:15:25;;;;;;;;;0.00;0.00;;;;;12.26;100.00;99373.81;6336147;22;45282;-85
2023/10/28 07:17:55;;;;;;;;;0.00;0.00;;;;;12.33;100.00;99381.22;6335890;22;45276;-84
2023/10/28 07:20:23;;;;;;;;;0.00;0.00;;;;;12.34;100.00;99387.28;6307592;22;45324;-84
2023/10/28 07:22:49;;;;;;;;;0.00;0.00;;;;;12.29;100.00;99381.47;6335916;22;46277;-84
2023/10/28 07:25:24;;;;;;;;;0.00;0.00;;;;;12.35;100.00;99381.09;6308093;22;45136;-85
2023/10/28 07:27:52;;;;;;;;;0.00;0.00;;;;;12.33;100.00;99390.78;6308564;22;45451;-86
2023/10/28 07:30:20;;;;;;;;;0.00;0.00;;;;;12.37;100.00;99394.94;6307786;22;45226;-85
2023/10/28 07:32:59;;;;;;;;;;;;;;;;;;;;;
2023/10/28 07:35:25;;;;;;;;;0.00;0.00;;;;;12.41;100.00;99388.59;6330054;22;73707;-87
2023/10/28 07:37:52;;;;;;;;;0.00;0.00;;;;;12.49;100.00;99420.31;6308523;22;45359;-87
2023/10/28 07:40:18;;;;;;;;;0.00;0.00;;;;;12.43;100.00;99399.78;6283456;22;45243;-87
2023/10/28 07:42:44;;;;;;;;;0.00;0.00;;;;;12.49;100.00;99409.03;6282375;22;47963;-86
2023/10/28 07:45:09;;;;;;;;;0.00;0.00;;;;;12.54;100.00;99422.66;6308088;22;45343;-86
2023/10/28 07:47:35;;;;;;;;;0.00;0.00;;;;;12.55;100.00;99427.75;6336376;22;45249;-87
2023/10/28 07:50:00;;;;;;;;;0.00;0.00;;;;;12.56;100.00;99413.78;6281052;22;45894;-89
2023/10/28 07:52:35;;;;;;;;;0.00;0.00;;;;;12.60;100.00;99414.47;6334786;22;46155;-88
2023/10/28 07:55:04;;;;;;;;;0.00;0.00;;;;;12.65;100.00;99437.66;6309088;22;45349;-87
2023/10/28 07:57:30;;;;;;;;;0.00;0.00;;;;;12.63;100.00;99443.00;6280744;22;45298;-88
2023/10/28 07:59:58;;;;;;;;;0.00;0.00;;;;;12.56;100.00;99446.91;6309157;22;45178;-87
2023/10/28 08:02:23;;;;;;;;;0.00;0.00;;;;;12.58;100.00;99451.09;6310063;22;46560;-87
2023/10/28 08:04:48;;;;;;;;;0.00;0.00;;;;;12.61;100.00;99450.09;6280241;22;51165;-87
2023/10/28 08:07:15;;;;;;;;;0.00;0.00;;;;;12.61;100.00;99452.69;6308481;22;45377;-88
2023/10/28 08:09:40;;;;;;;;;4.00;0.00;;;;;12.63;100.00;99439.53;6309102;22;45358;-86
2023/10/28 08:12:06;;;;;;;;;0.00;0.00;;;;;12.69;100.00;99442.66;6336135;22;46189;-87
2023/10/28 08:14:34;;;;;;;;;0.00;0.00;;;;;12.73;100.00;99436.31;6337182;22;45237;-86
2023/10/28 08:16:59;;;;;;;;;0.00;0.00;;;;;12.73;100.00;99438.09;6309840;22;45237;-85
2023/10/28 08:19:25;;;;;;;;;0.00;0.00;;;;;12.74;100.00;99440.63;6308306;22;45381;-87
2023/10/28 08:21:50;;;;;;;;;0.00;0.00;;;;;12.79;100.00;99445.56;6336777;22;47074;-86
2023/10/28 08:24:16;;;;;;;;;0.00;0.00;;;;;12.81;100.00;99432.41;6307968;22;45362;-85
2023/10/28 08:26:42;;;;;;;;;0.00;0.00;;;;;12.87;100.00;99443.34;6309075;22;45437;-86
2023/10/28 08:29:07;;;;;;;;;0.00;0.00;;;;;12.89;100.00;99438.00;6308610;22;45539;-86
2023/10/28 08:31:33;;;;;;;;;0.00;0.00;;;;;12.85;100.00;99446.97;6308106;22;47056;-84
2023/10/28 08:33:59;;;;;;;;;0.00;0.00;;;;;12.87;100.00;99440.72;6307933;22;45847;-84
2023/10/28 08:36:25;;;;;;;;;0.00;0.00;;;;;12.90;100.00;99448.38;6336706;22;45561;-85
2023/10/28 08:38:53;;;;;;;;;0.25;0.00;;;;;12.91;100.00;99439.63;6336763;22;45394;-86
2023/10/28 08:41:21;;;;;;;;;0.00;0.00;;;;;12.91;100.00;99428.34;6309455;22;46444;-90
2023/10/28 08:43:47;;;;;;;;;0.00;0.00;;;;;12.95;100.00;99425.44;6309834;22;45322;-84
2023/10/28 08:46:12;;;;;;;;;0.00;0.00;;;;;12.97;100.00;99413.13;6308841;22;46169;-85
2023/10/28 08:48:38;;;;;;;;;0.00;0.00;;;;;12.97;100.00;99405.28;6335102;22;70509;-86
2023/10/28 08:51:06;;;;;;;;;1.00;0.00;;;;;12.98;100.00;99411.34;6309528;22;46247;-87
2023/10/28 08:53:33;;;;;;;;;0.00;0.00;;;;;13.05;100.00;99398.75;6281919;22;45384;-87
2023/10/28 08:56:00;;;;;;;;;0.00;0.00;;;;;13.10;100.00;99399.34;6309114;22;45234;-86
2023/10/28 08:58:26;;;;;;;;;0.00;0.00;;;;;13.21;100.00;99383.00;6309598;22;45349;-87
2023/10/28 09:01:03;;;;;;;;;0.75;0.00;;;;;13.15;100.00;99403.34;6308637;22;46208;-85
2023/10/28 09:03:30;;;;;;;;;0.00;0.00;;;;;13.23;100.00;99391.59;6335820;22;45376;-86
2023/10/28 09:05:56;;;;;;;;;0.00;0.00;;;;;13.30;100.00;99395.50;6308891;22;45187;-85
2023/10/28 09:08:24;;;;;;;;;0.00;0.00;;;;;13.35;100.00;99396.06;6308631;22;45455;-84
2023/10/28 09:10:50;;;;;;;;;0.00;0.00;;;;;13.36;100.00;99406.44;6308351;22;45398;-85
2023/10/28 09:13:23;;;;;;;;;0.00;0.00;;;;;13.53;100.00;99394.94;6336316;22;45211;-84
2023/10/28 09:15:49;;;;;;;;;0.00;0.00;;;;;13.50;100.00;99382.06;6336203;22;45281;-84
2023/10/28 09:18:14;;;;;;;;;1.00;1.00;;;;;13.53;100.00;99381.84;6336116;22;45483;-85
2023/10/28 09:20:42;;;;;;;;;0.00;0.00;;;;;13.61;100.00;99396.22;6282277;22;46997;-85
2023/10/28 09:23:08;;;;;;;;;0.00;0.00;;;;;13.65;100.00;99388.09;6336412;22;45296;-85
2023/10/28 09:25:34;;;;;;;;;0.00;0.00;;;;;13.63;100.00;99378.66;6336267;22;45227;-85
2023/10/28 09:27:59;;;;;;;;;0.00;0.00;;;;;13.68;100.00;99389.69;6308174;22;45439;-85
2023/10/28 09:30:28;;;;;;;;;0.00;0.00;;;;;13.68;100.00;99406.19;6281532;22;47278;-84
2023/10/28 09:32:56;;;;;;;;;0.00;0.00;;;;;13.68;100.00;99390.50;6308579;22;45172;-85
2023/10/28 09:35:24;;;;;;;;;0.00;0.00;;;;;13.61;100.00;99407.50;6309206;22;45465;-84
2023/10/28 09:37:50;;;;;;;;;0.00;0.00;;;;;13.68;100.00;99372.19;6308968;22;45321;-84
2023/10/28 09:40:17;;;;;;;;;0.00;0.00;;;;;13.72;100.00;99378.09;6336180;22;46932;-83
2023/10/28 09:42:43;;;;;;;;;0.00;0.00;;;;;13.74;100.00;99379.69;6336107;22;45369;-83
2023/10/28 09:45:09;;;;;;;;;0.00;0.00;;;;;13.85;100.00;99380.75;6335807;22;45298;-85
2023/10/28 09:47:48;;;;;;;;;0.00;0.00;;;;;13.93;100.00;99383.75;6336463;22;45498;-83
2023/10/28 09:50:17;;;;;;;;;0.25;0.00;;;;;13.99;100.00;99380.72;6282436;22;48070;-86
2023/10/28 09:52:44;;;;;;;;;0.00;0.00;;;;;14.07;100.00;99383.66;6310736;22;45436;-85
2023/10/28 09:55:19;;;;;;;;;0.00;0.00;;;;;14.02;100.00;99380.53;6308590;22;45258;-86
2023/10/28 09:57:49;;;;;;;;;0.00;0.00;;;;;14.08;100.00;99356.56;6310937;22;45168;-86
2023/10/28 10:00:19;;;;;;;;;0.75;0.00;;;;;14.16;100.00;99371.75;6308613;22;45539;-85
2023/10/28 10:03:02;;;;;;;;;0.00;0.00;;;;;14.18;100.00;99377.72;6282526;22;45322;-86
2023/10/28 10:05:44;;;;;;;;;0.00;0.00;;;;;14.21;100.00;99390.63;6336122;22;45198;-85
2023/10/28 10:08:25;;;;;;;;;0.00;0.00;;;;;14.22;100.00;99370.53;6308810;22;45457;-86
2023/10/28 10:10:58;;;;;;;;;3.00;1.00;;;;;14.30;100.00;99376.94;6307986;22;46234;-86
2023/10/28 10:13:26;;;;;;;;;0.00;0.00;;;;;14.30;100.00;99382.16;6335640;22;45361;-84
2023/10/28 10:16:03;;;;;;;;;0.00;0.00;;;;;14.27;100.00;99386.75;6308023;22;45457;-87
2023/10/28 10:18:46;;;;;;;;;0.00;0.00;;;;;14.29;100.00;99387.50;6308750;22;45290;-88
2023/10/28 10:21:24;;;;;;;;;;;;;;;;;;;;;
2023/10/28 10:24:04;;;;;;;;;0.00;0.00;;;;;14.54;100.00;99394.56;6309651;22;73071;-88
2023/10/28 10:26:35;;;;;;;;;0.00;0.00;;;;;14.67;100.00;99428.66;6282424;22;45386;-86
2023/10/28 10:29:13;;;;;;;;;;;;;;;;;;;;;
2023/10/28 10:31:48;;;;;;;;;;;;;;;;;;;;;
2023/10/28 10:34:34;;;;;;;;;0.00;0.00;;;;;14.49;100.00;99457.72;6301612;22;73966;-87
2023/10/28 10:37:02;;;;;;;;;0.00;0.00;;;;;14.34;100.00;99458.72;6335319;22;45344;-88
2023/10/28 10:39:27;;;;;;;;;0.00;0.00;;;;;14.21;100.00;99483.97;6307903;22;45543;-84
2023/10/28 10:42:01;;;;;;;;;0.00;0.00;;;;;14.09;100.00;99454.22;6335466;22;46995;-86
2023/10/28 10:45:01;;;;;;;;;0.00;0.00;;;;;13.99;100.00;99482.75;6334254;22;45411;-88
2023/10/28 10:47:27;;;;;;;;;0.00;0.00;;;;;13.92;100.00;99469.19;6335758;22;45352;-86
2023/10/28 10:50:10;;;;;;;;;0.25;0.00;;;;;13.96;100.00;99466.41;6306080;22;45359;-86
2023/10/28 10:52:39;;;;;;;;;0.00;0.00;;;;;13.87;100.00;99450.38;6279725;22;48033;-86
2023/10/28 10:55:15;;;;;;;;;0.00;0.00;;;;;13.97;100.00;99419.22;6307488;22;45249;-86
2023/10/28 10:58:05;;;;;;;;;0.00;0.00;;;;;13.99;100.00;99401.66;6334432;22;45261;-90
2023/10/28 11:01:02;;;;;;;;;;;;;;;;;;;;;
2023/10/28 11:03:31;;;;;;;;;0.00;0.00;;;;;14.18;100.00;99400.44;6300925;22;73752;-89
2023/10/28 11:05:56;;;;;;;;;0.00;0.00;;;;;14.14;100.00;99413.72;6318293;22;45148;-89
2023/10/28 11:08:22;;;;;;;;;0.00;0.00;;;;;14.16;100.00;99410.19;6285059;22;45305;-86
2023/10/28 11:10:47;;;;;;;;;0.00;0.00;;;;;14.12;100.00;99420.00;6307066;22;45480;-86
2023/10/28 11:13:22;;;;;;;;;0.00;0.00;;;;;14.16;100.00;99424.09;6307750;22;46129;-88
2023/10/28 11:15:51;;;;;;;;;0.00;0.00;;;;;14.21;100.00;99426.41;6336135;22;45299;-90
2023/10/28 11:18:19;;;;;;;;;0.00;0.00;;;;;14.22;100.00;99428.09;6306733;22;45310;-88
2023/10/28 11:20:50;;;;;;;;;0.00;0.00;;;;;14.30;100.00;99391.78;6309460;22;45578;-90
2023/10/28 11:23:16;;;;;;;;;0.00;0.00;;;;;14.41;100.00;99402.41;6307563;22;45379;-90
2023/10/28 11:26:02;;;;;;;;;;;;;;;;;;;;;
2023/10/28 11:29:22;;;;;;;;;;;;;;;;;;;;;
2023/10/28 11:31:41;;;;;;;;;0.00;0.00;;;;;14.79;100.00;99393.78;6308029;22;45517;-93
2023/10/28 11:34:13;;;;;;;;;0.00;0.00;;;;;14.89;100.00;99442.00;6307331;22;46820;-88
2023/10/28 11:36:44;;;;;;;;;0.00;0.00;;;;;14.92;100.00;99417.38;6335026;22;45337;-88
2023/10/28 11:39:25;;;;;;;;;;;;;;;;;;;;;
2023/10/28 11:41:52;;;;;;;;;0.00;0.00;;;;;14.79;100.00;99413.91;6332875;22;71192;-92
2023/10/28 11:44:17;;;;;;;;;0.00;0.00;;;;;14.75;100.00;99402.81;6309876;22;45617;-91
2023/10/28 11:46:42;;;;;;;;;0.00;0.00;;;;;14.84;100.00;99417.91;6311216;22;45304;-92
2023/10/28 11:49:10;;;;;;;;;0.00;0.00;;;;;14.83;100.00;99408.34;6285728;22;45358;-90
2023/10/28 11:51:46;;;;;;;;;;;;;;;;;;;;;
2023/10/28 11:54:19;;;;;;;;;0.00;0.00;;;;;14.96;100.00;99399.66;6312496;22;76320;-95
2023/10/28 11:56:45;;;;;;;;;0.00;0.00;;;;;15.09;100.00;99397.88;6288552;22;45391;-94
2023/10/28 11:59:23;;;;;;;;;0.50;0.00;;;;;15.10;100.00;99410.03;6312228;22;45268;-91
2023/10/28 12:01:58;;;;;;;;;;;;;;;;;;;;;
2023/10/28 12:05:04;;;;;;;;;0.00;0.00;;;;;14.96;100.00;99403.13;6311088;22;75432;-92
2023/10/28 12:07:29;;;;;;;;;0.00;0.00;;;;;14.87;100.00;99399.31;6321172;22;45305;-93
2023/10/28 12:09:55;;;;;;;;;0.00;0.00;;;;;14.95;100.00;99408.44;6284177;22;45307;-93